Time;durP1;ratioP1;P1;durP2;ratioP2;P2;SDS_P1;SDS_P2;PMS_P1;PMS_P2;Temp;Humidity;BMP_temperature;BMP_pressure;BME280_temperature;BME280_humidity;BME280_pressure;Samples;Min_cycle;Max_cycle;Signal;HPM_P1;HPM_P2
2022/04/17 00:00:05;;;;;;;1.47;0.90;;;;;;;4.27;100.00;100785.59;1735916;82;20985;-48
2022/04/17 00:02:32;;;;;;;1.00;1.00;;;;;;;4.26;100.00;100781.31;1736184;82;20972;-48
2022/04/17 00:04:58;;;;;;;1.35;1.35;;;;;;;4.27;100.00;100784.31;1735938;82;20921;-48
2022/04/17 00:07:25;;;;;;;0.93;0.93;;;;;;;4.26;100.00;100780.91;1745733;82;20976;-48
2022/04/17 00:09:51;;;;;;;1.10;1.10;;;;;;;4.27;100.00;100784.31;1749755;82;21101;-48
2022/04/17 00:12:18;;;;;;;1.22;1.22;;;;;;;4.26;100.00;100785.16;1749942;82;21007;-48
2022/04/17 00:14:47;;;;;;;1.20;1.20;;;;;;;4.20;100.00;100774.83;1750165;81;20937;-48
2022/04/17 00:17:14;;;;;;;1.50;1.40;;;;;;;4.20;100.00;100774.83;1750092;82;21458;-48
2022/04/17 00:19:41;;;;;;;1.20;1.20;;;;;;;4.19;100.00;100768.86;1750014;82;21085;-47
2022/04/17 00:22:07;;;;;;;1.50;1.40;;;;;;;4.19;100.00;100770.14;1750031;82;21257;-48
2022/04/17 00:24:35;;;;;;;4.30;1.55;;;;;;;4.14;100.00;100766.63;1750010;82;20980;-47
2022/04/17 00:27:04;;;;;;;1.80;1.70;;;;;;;4.16;100.00;100767.52;1750124;82;20991;-48
2022/04/17 00:29:31;;;;;;;1.50;1.30;;;;;;;4.12;100.00;100763.19;1750046;82;20956;-47
2022/04/17 00:31:57;;;;;;;1.47;1.40;;;;;;;4.11;100.00;100759.78;1749980;82;20877;-47
2022/04/17 00:34:26;;;;;;;1.70;1.60;;;;;;;4.13;100.00;100766.20;1749964;82;21216;-47
2022/04/17 00:36:53;;;;;;;1.72;1.62;;;;;;;4.09;100.00;100770.44;1749801;81;20881;-47
2022/04/17 00:39:19;;;;;;;1.72;1.50;;;;;;;4.10;100.00;100784.09;1750074;82;20928;-47
2022/04/17 00:41:47;;;;;;;1.30;1.20;;;;;;;4.13;100.00;100787.97;1749984;82;20936;-47
2022/04/17 00:44:15;;;;;;;1.82;1.72;;;;;;;4.10;100.00;100778.56;1750130;82;20920;-47
2022/04/17 00:46:41;;;;;;;3.95;1.92;;;;;;;4.10;100.00;100784.97;1749867;82;21193;-47
2022/04/17 00:49:08;;;;;;;1.55;1.50;;;;;;;4.11;100.00;100788.38;1750093;82;21505;-47
2022/04/17 00:51:36;;;;;;;2.10;2.00;;;;;;;4.10;100.00;100784.09;1750201;82;21459;-47
2022/04/17 00:54:03;;;;;;;2.87;1.72;;;;;;;4.10;100.00;100784.09;1749781;82;21516;-48
2022/04/17 00:56:31;;;;;;;1.82;1.72;;;;;;;4.13;100.00;100782.45;1750158;82;21054;-47
2022/04/17 00:59:04;;;;;;;2.02;1.87;;;;;;;4.13;100.00;100782.45;1750046;82;21114;-47
2022/04/17 01:01:33;;;;;;;3.22;1.65;;;;;;;4.16;100.00;100791.86;1749868;82;20937;-47
2022/04/17 01:04:01;;;;;;;2.30;1.60;;;;;;;4.14;100.00;100793.13;1749907;82;20940;-47
2022/04/17 01:06:31;;;;;;;1.65;1.50;;;;;;;4.17;100.00;100788.48;1747687;81;21004;-47
2022/04/17 01:09:00;;;;;;;2.10;1.87;;;;;;;4.18;100.00;100783.80;1735968;82;20952;-47
2022/04/17 01:11:29;;;;;;;2.15;2.05;;;;;;;4.17;100.00;100776.52;1736011;82;20881;-48
2022/04/17 01:13:55;;;;;;;1.95;1.77;;;;;;;4.14;100.00;100774.32;1739479;82;21051;-47
2022/04/17 01:16:23;;;;;;;1.92;1.72;;;;;;;4.16;100.00;100773.92;1735942;81;20929;-47
2022/04/17 01:19:11;;;;;;;2.85;2.55;;;;;;;4.17;100.00;100778.23;1735917;82;20933;-47
2022/04/17 01:21:34;;;;;;;2.08;1.90;;;;;;;4.16;100.00;100776.08;1735477;82;21482;-47
2022/04/17 01:26:56;;;;;;;1.90;1.80;;;;;;;4.13;100.00;100775.16;1735864;82;20964;-47
2022/04/17 01:29:26;;;;;;;2.20;2.10;;;;;;;4.10;100.00;100767.03;1736006;82;20925;-47
2022/04/17 01:31:54;;;;;;;1.95;1.85;;;;;;;4.10;100.00;100767.03;1735939;82;21360;-48
2022/04/17 01:34:21;;;;;;;2.65;2.25;;;;;;;4.09;100.00;100763.16;1736404;82;21624;-48
2022/04/17 01:36:49;;;;;;;2.00;1.90;;;;;;;4.06;100.00;100766.96;1735917;82;21221;-49
2022/04/17 01:39:16;;;;;;;2.67;2.05;;;;;;;4.04;100.00;100764.36;1715048;82;20992;-49
2022/04/17 01:41:43;;;;;;;5.37;2.25;;;;;;;4.01;100.00;100761.36;1735826;82;21372;-48
2022/04/17 01:44:10;;;;;;;1.57;1.47;;;;;;;4.01;100.00;100767.77;1736042;82;20973;-47
2022/04/17 01:46:37;;;;;;;1.45;1.42;;;;;;;4.01;100.00;100772.89;1736121;82;22081;-48
2022/04/17 01:49:06;;;;;;;1.92;1.72;;;;;;;4.02;100.00;100782.30;1735948;82;21280;-48
2022/04/17 01:51:38;;;;;;;1.80;1.70;;;;;;;4.04;100.00;100774.61;1735771;82;20901;-48
2022/04/17 01:54:11;;;;;;;1.70;1.60;;;;;;;4.06;100.00;100779.37;1735962;82;21963;-48
2022/04/17 01:56:39;;;;;;;1.75;1.65;;;;;;;4.06;100.00;100779.37;1735862;82;20889;-47
2022/04/17 01:59:06;;;;;;;1.70;1.60;;;;;;;4.06;100.00;100772.96;1735799;82;21047;-47
2022/04/17 02:01:34;;;;;;;2.65;2.17;;;;;;;4.05;100.00;100771.65;1735826;82;21136;-48
2022/04/17 02:04:02;;;;;;;1.90;1.80;;;;;;;4.02;100.00;100778.86;1735922;82;20984;-47
2022/04/17 02:06:30;;;;;;;2.10;1.90;;;;;;;4.00;100.00;100767.33;1735917;81;20940;-47
2022/04/17 02:08:56;;;;;;;1.95;1.85;;;;;;;4.01;100.00;100775.45;1735953;82;20917;-47
2022/04/17 02:11:26;;;;;;;1.92;1.82;;;;;;;4.03;100.00;100775.05;1735964;82;21476;-47
2022/04/17 02:13:54;;;;;;;1.67;1.57;;;;;;;4.03;100.00;100775.05;1735888;82;21265;-48
2022/04/17 02:16:22;;;;;;;1.90;1.80;;;;;;;4.04;100.00;100772.05;1735844;82;20921;-47
2022/04/17 02:18:49;;;;;;;1.90;1.80;;;;;;;4.06;100.00;100766.96;1735909;82;20889;-47
2022/04/17 02:21:17;;;;;;;2.52;1.90;;;;;;;4.06;100.00;100770.80;1735833;82;20933;-47
2022/04/17 02:23:44;;;;;;;2.08;1.98;;;;;;;4.06;100.00;100774.65;1735994;82;20924;-47
2022/04/17 02:26:13;;;;;;;2.35;1.92;;;;;;;4.06;100.00;100770.80;1735881;82;21103;-47
2022/04/17 02:28:40;;;;;;;1.72;1.67;;;;;;;4.03;100.00;100767.36;1736037;82;21412;-47
2022/04/17 02:31:08;;;;;;;2.17;2.08;;;;;;;4.01;100.00;100770.33;1735984;82;20989;-47
2022/04/17 02:33:37;;;;;;;1.75;1.65;;;;;;;4.01;100.00;100766.89;1735887;82;20893;-47
2022/04/17 02:36:05;;;;;;;3.08;2.62;;;;;;;4.00;100.00;100775.02;1735887;82;20925;-47
2022/04/17 02:38:33;;;;;;;2.62;2.42;;;;;;;3.99;100.00;100769.45;1739553;82;20984;-47
2022/04/17 02:41:00;;;;;;;3.15;2.20;;;;;;;4.00;100.00;100776.30;1735786;82;21019;-47
2022/04/17 02:43:27;;;;;;;2.58;2.37;;;;;;;4.01;100.00;100780.98;1735932;82;20968;-47
2022/04/17 02:45:54;;;;;;;2.08;1.95;;;;;;;4.02;100.00;100774.61;1735789;82;20940;-48
2022/04/17 02:48:22;;;;;;;2.55;2.05;;;;;;;4.03;100.00;100771.20;1735903;82;21391;-48
2022/04/17 02:50:48;;;;;;;2.30;2.20;;;;;;;4.06;100.00;100763.12;1735890;82;21138;-47
2022/04/17 02:53:17;;;;;;;1.77;1.67;;;;;;;4.07;100.00;100761.00;1735864;82;20929;-47
2022/04/17 02:55:45;;;;;;;2.10;2.00;;;;;;;4.07;100.00;100768.28;1735816;82;21027;-47
2022/04/17 02:58:12;;;;;;;4.62;2.20;;;;;;;4.05;100.00;100754.99;1735893;82;20917;-47
2022/04/17 03:06:12;;;;;;;2.22;2.12;;;;;;;4.08;100.00;100755.03;1735850;82;20992;-47
2022/04/17 03:08:39;;;;;;;2.60;2.40;;;;;;;4.07;100.00;100762.28;1746931;81;20916;-47
2022/04/17 03:11:06;;;;;;;1.82;1.72;;;;;;;4.06;100.00;100757.59;1749712;81;20933;-47
2022/04/17 03:13:35;;;;;;;1.95;1.85;;;;;;;4.06;100.00;100755.44;1749956;82;20999;-47
2022/04/17 03:16:02;;;;;;;1.90;1.80;;;;;;;4.08;100.00;100758.47;1749803;82;21080;-47
2022/04/17 03:18:30;;;;;;;2.55;2.37;;;;;;;4.09;100.00;100761.88;1749842;82;20913;-48
2022/04/17 03:20:58;;;;;;;3.05;2.30;;;;;;;4.08;100.00;100762.72;1749929;82;21001;-47
2022/04/17 03:23:26;;;;;;;1.92;1.82;;;;;;;4.07;100.00;100767.41;1749920;82;20971;-48
2022/04/17 03:25:53;;;;;;;2.47;2.30;;;;;;;4.09;100.00;100774.69;1749945;82;20953;-47
2022/04/17 03:28:21;;;;;;;2.40;2.30;;;;;;;4.10;100.00;100771.28;1750038;82;20838;-46
2022/04/17 03:30:49;;;;;;;2.27;2.10;;;;;;;4.13;100.00;100779.00;1750044;82;20893;-47
2022/04/17 03:33:16;;;;;;;2.60;2.40;;;;;;;4.14;100.00;100775.59;1750052;81;20963;-47
2022/04/17 03:35:44;;;;;;;2.30;2.20;;;;;;;4.16;100.00;100771.36;1750090;80;20925;-47
2022/04/17 03:38:11;;;;;;;3.55;2.65;;;;;;;4.16;100.00;100775.20;1750051;82;20901;-48
2022/04/17 03:40:39;;;;;;;2.40;1.92;;;;;;;4.12;100.00;100771.76;1750073;82;21152;-47
2022/04/17 03:43:07;;;;;;;2.20;2.10;;;;;;;4.17;100.00;100783.36;1749948;81;20928;-47
2022/04/17 03:45:35;;;;;;;3.55;2.30;;;;;;;4.20;100.00;100789.80;1749966;82;20885;-48
2022/04/17 03:48:02;;;;;;;2.67;2.52;;;;;;;4.22;100.00;100789.40;1749972;82;21210;-49
2022/04/17 03:50:28;;;;;;;2.85;2.65;;;;;;;4.22;100.00;100793.24;1750025;82;20975;-48
2022/04/17 03:52:56;;;;;;;3.58;2.42;;;;;;;4.22;100.00;100785.55;1749842;82;20936;-47
2022/04/17 03:55:24;;;;;;;2.22;2.08;;;;;;;4.24;100.00;100779.15;1750057;82;21054;-48
2022/04/17 03:57:52;;;;;;;4.83;2.20;;;;;;;4.28;100.00;100777.06;1750040;81;20932;-47
2022/04/17 04:00:18;;;;;;;2.33;2.22;;;;;;;4.29;100.00;100784.78;1722331;82;20948;-49
2022/04/17 04:02:49;;;;;;;5.75;2.30;;;;;;;4.31;100.00;100787.38;1749980;82;21427;-48
2022/04/17 04:05:15;;;;;;;2.65;2.45;;;;;;;4.31;100.00;100787.38;1749765;81;21061;-48
2022/04/17 04:07:42;;;;;;;1.70;1.60;;;;;;;4.29;100.00;100786.47;1749868;81;21462;-48
2022/04/17 04:10:10;;;;;;;1.70;1.60;;;;;;;4.29;100.00;100786.47;1749896;81;20928;-48
2022/04/17 04:12:37;;;;;;;2.17;2.08;;;;;;;4.35;100.00;100792.11;1750099;82;20937;-48
2022/04/17 04:15:07;;;;;;;1.82;1.77;;;;;;;4.37;100.00;100790.41;1750000;82;20877;-48
2022/04/17 04:17:34;;;;;;;2.52;2.00;;;;;;;4.38;100.00;100799.42;1750046;82;21811;-49
2022/04/17 04:20:04;;;;;;;2.42;2.33;;;;;;;4.40;100.00;100814.40;1749894;82;20945;-48
2022/04/17 04:22:31;;;;;;;1.80;1.70;;;;;;;4.40;100.00;100804.55;1749839;80;21007;-48
2022/04/17 04:24:59;;;;;;;3.92;2.20;;;;;;;4.44;100.00;100794.80;1750266;81;20900;-48
2022/04/17 04:30:11;;;;;;;2.00;1.82;;;;;;;4.45;100.00;100796.08;1750064;82;21157;-48
2022/04/17 04:32:37;;;;;;;1.82;1.72;;;;;;;4.48;100.00;100804.25;1739261;82;20904;-48
2022/04/17 04:35:06;;;;;;;2.10;2.00;;;;;;;4.51;100.00;100805.97;1749955;82;20972;-48
2022/04/17 04:37:33;;;;;;;1.92;1.82;;;;;;;4.51;100.00;100806.84;1749984;82;21467;-48
2022/04/17 04:39:59;;;;;;;2.00;1.80;;;;;;;4.51;100.00;100806.84;1750164;82;21529;-48
2022/04/17 04:42:26;;;;;;;1.67;1.65;;;;;;;4.51;100.00;100808.12;1750102;82;21148;-48
2022/04/17 04:47:34;;;;;;;2.55;2.35;;;;;;;4.57;100.00;100815.89;1689994;82;21513;-46
2022/04/17 04:50:03;;;;;;;2.20;2.10;;;;;;;4.60;100.00;100815.08;1749821;82;20929;-48
2022/04/17 04:52:36;;;;;;;2.27;1.98;;;;;;;4.65;100.00;100816.39;1750078;82;21384;-47
2022/04/17 04:55:07;;;;;;;2.20;2.00;;;;;;;4.64;100.00;100822.36;1749916;82;21190;-48
2022/04/17 04:57:37;;;;;;;1.85;1.75;;;;;;;4.67;100.00;100827.52;1749956;82;20941;-48
2022/04/17 05:00:07;;;;;;;1.75;1.65;;;;;;;4.72;100.00;100823.33;1750001;82;20976;-48
2022/04/17 05:02:41;;;;;;;2.05;1.95;;;;;;;4.75;100.00;100823.36;1722612;82;20984;-48
2022/04/17 05:05:07;;;;;;;2.15;2.05;;;;;;;4.77;100.00;100822.95;1748807;82;20925;-48
2022/04/17 05:07:34;;;;;;;2.12;2.00;;;;;;;4.80;100.00;100825.96;1721498;81;21846;-48
2022/04/17 05:10:02;;;;;;;2.58;2.00;;;;;;;4.84;100.00;100828.59;1714995;82;20976;-45
2022/04/17 05:12:29;;;;;;;1.87;1.77;;;;;;;4.87;100.00;100829.90;1735896;82;21452;-48
2022/04/17 05:14:58;;;;;;;2.17;2.08;;;;;;;4.86;100.00;100842.29;1736192;82;20980;-47
2022/04/17 05:17:25;;;;;;;2.15;2.05;;;;;;;4.84;100.00;100843.14;1735871;82;20944;-48
2022/04/17 05:19:53;;;;;;;1.80;1.70;;;;;;;4.84;100.00;100838.01;1735975;82;21348;-47
2022/04/17 05:22:21;;;;;;;1.95;1.85;;;;;;;4.89;100.00;100844.89;1735934;81;21440;-48
2022/04/17 05:24:48;;;;;;;2.05;1.95;;;;;;;4.89;100.00;100836.34;1735967;82;20937;-49
2022/04/17 05:27:16;;;;;;;2.58;1.57;;;;;;;4.92;100.00;100842.79;1735912;82;20925;-48
2022/04/17 05:29:43;;;;;;;2.27;2.17;;;;;;;4.92;100.00;100836.78;1736087;82;20937;-48
2022/04/17 05:32:09;;;;;;;2.10;1.90;;;;;;;4.93;100.00;100841.95;1735907;82;21150;-48
2022/04/17 05:34:36;;;;;;;2.37;2.12;;;;;;;4.90;100.00;100839.34;1735843;81;21007;-47
2022/04/17 05:37:04;;;;;;;2.35;2.15;;;;;;;4.89;100.00;100841.04;1735941;82;20901;-47
2022/04/17 05:39:30;;;;;;;3.47;1.65;;;;;;;4.91;100.00;100837.63;1735777;82;20941;-48
2022/04/17 05:41:58;;;;;;;1.90;1.80;;;;;;;4.96;100.00;100836.84;1736119;82;21530;-48
2022/04/17 05:44:27;;;;;;;2.22;1.98;;;;;;;5.02;100.00;100842.47;1735755;82;21093;-48
2022/04/17 05:46:55;;;;;;;1.90;1.80;;;;;;;5.01;100.00;100848.45;1735826;82;21448;-48
2022/04/17 05:49:22;;;;;;;1.85;1.75;;;;;;;5.03;100.00;100845.48;1735857;82;20922;-47
2022/04/17 05:51:49;;;;;;;2.00;1.90;;;;;;;5.08;100.00;100842.53;1735905;82;20964;-48
2022/04/17 05:54:16;;;;;;;1.90;1.80;;;;;;;5.07;100.00;100843.37;1735962;82;20921;-48
2022/04/17 05:56:42;;;;;;;3.08;1.90;;;;;;;5.06;100.00;100839.53;1735853;82;21143;-48
2022/04/17 05:59:09;;;;;;;1.90;1.80;;;;;;;5.09;100.00;100840.84;1735981;81;21000;-47
2022/04/17 06:01:36;;;;;;;4.20;2.02;;;;;;;5.10;100.00;100842.12;1736182;82;21578;-48
2022/04/17 06:04:03;;;;;;;2.20;2.10;;;;;;;5.11;100.00;100847.69;1735876;82;20960;-48
2022/04/17 06:06:31;;;;;;;1.87;1.70;;;;;;;5.07;99.92;100847.22;1735972;82;21099;-48
2022/04/17 06:08:58;;;;;;;2.22;1.90;;;;;;;5.07;100.00;100841.25;1740000;81;21094;-46
2022/04/17 06:11:24;;;;;;;1.60;1.50;;;;;;;5.10;100.00;100845.12;1743994;81;20956;-47
2022/04/17 06:13:52;;;;;;;2.05;1.95;;;;;;;5.13;100.00;100849.84;1743893;81;20881;-47
2022/04/17 06:16:20;;;;;;;2.00;1.90;;;;;;;5.11;100.00;100851.54;1744174;82;20882;-46
2022/04/17 06:18:48;;;;;;;1.90;1.80;;;;;;;5.10;99.82;100846.41;1744033;82;20937;-47
2022/04/17 06:21:18;;;;;;;1.75;1.65;;;;;;;5.08;99.93;100848.95;1744083;82;20910;-47
2022/04/17 06:23:44;;;;;;;2.10;2.00;;;;;;;5.12;100.00;100848.13;1744104;82;20897;-48
2022/04/17 06:26:13;;;;;;;1.65;1.55;;;;;;;5.16;100.00;100853.73;1744126;82;20881;-48
2022/04/17 06:28:39;;;;;;;1.80;1.70;;;;;;;5.13;99.87;100844.72;1744125;82;20937;-47
2022/04/17 06:31:07;;;;;;;1.87;1.77;;;;;;;5.17;100.00;100845.18;1744079;81;20877;-47
2022/04/17 06:33:35;;;;;;;2.37;2.27;;;;;;;5.19;100.00;100842.64;1744011;82;20949;-48
2022/04/17 06:36:03;;;;;;;1.77;1.67;;;;;;;5.21;99.44;100847.36;1714736;82;20987;-46
2022/04/17 06:38:30;;;;;;;2.72;1.90;;;;;;;5.21;99.74;100847.80;1744168;82;21462;-47
2022/04/17 06:40:57;;;;;;;2.10;2.00;;;;;;;5.26;99.83;100849.55;1744044;82;21034;-47
2022/04/17 06:43:24;;;;;;;1.85;1.50;;;;;;;5.37;99.83;100855.23;1744149;82;20976;-47
2022/04/17 06:45:52;;;;;;;1.90;1.80;;;;;;;5.51;100.00;100846.36;1743942;82;21421;-48
2022/04/17 06:48:21;;;;;;;1.60;1.57;;;;;;;5.56;97.28;100849.42;1743908;81;20909;-46
2022/04/17 06:50:52;;;;;;;1.70;1.60;;;;;;;5.65;97.66;100856.31;1744040;82;21336;-48
2022/04/17 06:53:19;;;;;;;1.80;1.70;;;;;;;5.77;96.41;100856.00;1744037;82;20918;-49
2022/04/17 06:55:47;;;;;;;1.72;1.55;;;;;;;5.78;95.28;100857.72;1743960;82;21027;-48
2022/04/17 06:58:14;;;;;;;3.25;1.67;;;;;;;5.84;95.68;100862.89;1744278;82;21999;-48
2022/04/17 07:00:41;;;;;;;2.42;1.40;;;;;;;5.85;94.07;100861.63;1743979;82;21404;-49
2022/04/17 07:03:08;;;;;;;1.60;1.50;;;;;;;5.94;95.40;100855.70;1743984;81;21032;-46
2022/04/17 07:05:36;;;;;;;1.40;1.35;;;;;;;6.10;93.03;100857.11;1743983;82;21439;-47
2022/04/17 07:08:05;;;;;;;1.55;1.47;;;;;;;6.15;91.29;100855.42;1744237;82;20952;-47
2022/04/17 07:10:37;;;;;;;1.67;1.57;;;;;;;6.18;92.27;100852.45;1691835;82;20893;-47
2022/04/17 07:13:07;;;;;;;1.60;1.50;;;;;;;6.28;91.37;100858.52;1744154;81;20980;-47
2022/04/17 07:15:35;;;;;;;1.60;1.50;;;;;;;6.32;89.47;100855.11;1744047;82;20886;-47
2022/04/17 07:18:02;;;;;;;1.47;1.40;;;;;;;6.28;88.12;100858.52;1714735;82;20933;-47
2022/04/17 07:20:30;;;;;;;1.47;1.30;;;;;;;6.26;87.09;100857.65;1744020;82;20956;-47
2022/04/17 07:24:33;;;;;;;1.00;1.00;;;;;;;6.30;87.81;100858.09;1816218;79;22644;-47
2022/04/17 07:27:01;;;;;;;1.82;1.20;;;;;;;6.37;87.03;100864.55;1789352;80;20944;-47
2022/04/17 07:29:28;;;;;;;1.32;1.32;;;;;;;6.52;87.29;100853.07;1789255;80;21209;-47
2022/04/17 07:31:56;;;;;;;1.47;1.47;;;;;;;6.72;86.58;100858.73;1789313;80;20923;-47
2022/04/17 07:34:23;;;;;;;1.30;1.27;;;;;;;6.87;86.50;100863.92;1789273;80;20967;-47
2022/04/17 07:36:54;;;;;;;1.00;1.00;;;;;;;7.05;87.05;100864.39;1789309;80;20949;-48
2022/04/17 07:39:22;;;;;;;0.88;0.88;;;;;;;7.17;85.56;100872.58;1789260;80;20979;-46
2022/04/17 07:41:49;;;;;;;0.80;0.80;;;;;;;7.07;82.46;100859.27;1789219;80;21184;-47
2022/04/17 07:44:16;;;;;;;0.93;0.90;;;;;;;7.01;81.79;100854.11;1789222;80;20888;-47
2022/04/17 07:46:42;;;;;;;1.00;1.00;;;;;;;6.82;81.51;100854.04;1789242;80;20936;-47
2022/04/17 07:49:09;;;;;;;1.40;1.30;;;;;;;6.70;81.85;100866.88;1789284;80;21459;-47
2022/04/17 07:51:38;;;;;;;1.17;1.05;;;;;;;6.61;83.54;100868.53;1789288;80;20924;-48
2022/04/17 07:54:05;;;;;;;1.10;0.90;;;;;;;6.69;84.37;100859.98;1789268;80;21152;-47
2022/04/17 07:56:32;;;;;;;1.15;0.80;;;;;;;6.75;82.85;100857.02;1789139;80;20983;-47
2022/04/17 07:58:58;;;;;;;1.00;1.00;;;;;;;6.84;80.44;100858.77;1789196;80;20928;-47
2022/04/17 08:01:27;;;;;;;8.78;5.25;;;;;;;6.93;80.32;100853.20;1789108;80;21486;-47
2022/04/17 08:03:55;;;;;;;6.20;5.17;;;;;;;7.02;79.37;100848.95;1789358;80;20987;-47
2022/04/17 08:06:21;;;;;;;5.22;4.80;;;;;;;7.13;79.32;100846.84;1789162;80;22029;-48
2022/04/17 08:08:51;;;;;;;3.83;2.42;;;;;;;7.35;80.33;100855.45;1773664;80;21462;-48
2022/04/17 08:11:17;;;;;;;2.25;1.10;;;;;;;7.49;79.25;100854.17;1784877;79;20893;-48
2022/04/17 08:13:46;;;;;;;1.60;1.50;;;;;;;7.43;78.40;100855.02;1784274;80;20971;-47
2022/04/17 08:16:13;;;;;;;1.07;1.05;;;;;;;7.25;79.36;100867.45;1784225;80;20979;-47
2022/04/17 08:18:41;;;;;;;9.40;6.62;;;;;;;7.10;79.12;100861.00;1784186;80;21445;-47
2022/04/17 08:21:08;;;;;;;3.12;2.00;;;;;;;6.96;80.65;100872.10;1784429;80;21473;-47
2022/04/17 08:23:37;;;;;;;2.35;2.00;;;;;;;6.92;80.36;100864.36;1780189;80;20925;-47
2022/04/17 08:26:06;;;;;;;1.15;0.90;;;;;;;6.92;81.29;100859.20;1776578;80;20968;-47
2022/04/17 08:28:32;;;;;;;1.27;1.27;;;;;;;6.94;81.19;100862.64;1776313;80;20960;-47
2022/04/17 08:31:00;;;;;;;1.10;1.10;;;;;;;6.88;81.54;100866.92;1776138;80;21005;-47
2022/04/17 08:33:27;;;;;;;5.30;4.80;;;;;;;6.89;80.77;100872.50;1776101;80;20880;-47
2022/04/17 08:35:55;;;;;;;31.95;21.80;;;;;;;6.84;80.16;100870.34;1775574;80;20932;-47
2022/04/17 08:38:22;;;;;;;5.45;4.97;;;;;;;6.89;79.80;100863.94;1775683;80;20928;-47
2022/04/17 08:40:50;;;;;;;3.95;3.65;;;;;;;7.03;80.60;100853.68;1775620;80;20975;-47
2022/04/17 08:43:21;;;;;;;1.50;1.50;;;;;;;7.24;80.39;100853.30;1775502;80;21187;-47
2022/04/17 08:45:50;;;;;;;0.80;0.80;;;;;;;7.37;78.10;100856.75;1775558;80;21427;-47
2022/04/17 08:48:17;;;;;;;1.40;1.25;;;;;;;7.38;77.11;100854.16;1775688;80;20964;-48
2022/04/17 08:50:43;;;;;;;0.70;0.70;;;;;;;7.35;78.56;100858.47;1775559;80;20865;-47
2022/04/17 08:53:15;;;;;;;3.12;2.85;;;;;;;7.40;76.27;100865.77;1775771;80;20841;-47
2022/04/17 08:55:43;;;;;;;2.15;1.95;;;;;;;7.32;76.09;100862.73;1775637;80;21014;-48
2022/04/17 08:58:11;;;;;;;1.22;1.12;;;;;;;7.30;75.25;100861.88;1775401;80;21018;-48
2022/04/17 09:00:38;;;;;;;1.05;0.90;;;;;;;7.31;75.32;100865.33;1775738;80;21042;-48
2022/04/17 09:03:08;;;;;;;1.47;0.78;;;;;;;7.43;74.93;100853.73;1775583;80;20991;-48
2022/04/17 09:05:35;;;;;;;0.82;0.82;;;;;;;7.71;74.66;100852.48;1775724;80;20928;-48
2022/04/17 09:08:17;;;;;;;3.40;1.20;;;;;;;7.96;73.84;100848.60;1775712;80;20944;-48
2022/04/17 09:10:57;;;;;;;0.50;0.50;;;;;;;8.05;72.49;100846.41;1775444;80;20940;-47
2022/04/17 09:13:32;;;;;;;5.20;2.45;;;;;;;8.12;72.76;100847.27;1775645;80;21000;-47
2022/04/17 09:16:00;;;;;;;14.78;7.72;;;;;;;8.10;71.65;100856.73;1775692;80;20924;-47
2022/04/17 09:18:31;;;;;;;10.43;5.75;;;;;;;7.96;72.23;100857.63;1775704;80;21462;-47
2022/04/17 09:21:02;;;;;;;14.28;9.58;;;;;;;7.94;73.97;100852.88;1775498;80;22103;-47
2022/04/17 09:23:38;;;;;;;2.27;2.17;;;;;;;7.91;74.94;100851.59;1775450;80;20916;-47
2022/04/17 09:26:06;;;;;;;1.40;1.30;;;;;;;7.72;74.69;100850.34;1775621;80;21000;-47
2022/04/17 09:28:35;;;;;;;0.80;0.80;;;;;;;7.65;76.25;100846.02;1775718;80;20979;-47
2022/04/17 09:31:10;;;;;;;0.90;0.90;;;;;;;7.65;74.59;100838.73;1775976;80;20987;-47
2022/04/17 09:33:41;;;;;;;0.72;0.68;;;;;;;7.64;75.40;100838.30;1775649;80;20936;-48
2022/04/17 09:36:12;;;;;;;2.02;1.92;;;;;;;7.65;75.54;100833.13;1775370;80;20893;-48
2022/04/17 09:38:39;;;;;;;1.00;0.90;;;;;;;7.78;76.34;100839.14;1775607;80;20849;-47
2022/04/17 09:41:10;;;;;;;0.47;0.47;;;;;;;8.01;75.61;100835.27;1775598;80;20991;-47
2022/04/17 09:43:38;;;;;;;0.30;0.30;;;;;;;8.14;74.86;100828.78;1775672;80;21393;-46
2022/04/17 09:46:06;;;;;;;0.62;0.40;;;;;;;8.26;73.26;100824.89;1775698;80;21242;-47
2022/04/17 09:48:39;;;;;;;0.53;0.50;;;;;;;8.23;72.88;100821.04;1775563;80;20929;-47
2022/04/17 09:51:25;;;;;;;1.42;1.07;;;;;;;8.24;73.13;100821.47;1775717;80;21011;-47
2022/04/17 09:54:00;;;;;;;0.80;0.80;;;;;;;8.27;72.80;100817.58;1775692;80;20941;-47
2022/04/17 09:56:43;;;;;;;2.58;0.78;;;;;;;8.28;72.76;100808.98;1775634;80;21486;-48
2022/04/17 09:59:21;;;;;;;3.27;1.12;;;;;;;8.15;72.21;100803.42;1775649;80;21240;-47
2022/04/17 10:01:51;;;;;;;0.65;0.65;;;;;;;7.99;73.58;100807.76;1775667;80;20928;-47
2022/04/17 10:04:22;;;;;;;0.70;0.70;;;;;;;7.91;74.87;100808.64;1775622;80;20945;-47
2022/04/17 10:06:54;;;;;;;0.40;0.40;;;;;;;7.73;76.17;100825.41;1775764;80;20996;-47
2022/04/17 10:09:22;;;;;;;1.55;0.45;;;;;;;7.48;76.81;100837.88;1775613;80;20887;-47
2022/04/17 10:11:51;;;;;;;0.55;0.55;;;;;;;7.29;76.93;100833.56;1775754;80;21426;-48
2022/04/17 10:14:19;;;;;;;0.75;0.70;;;;;;;7.23;77.18;100834.84;1775664;80;21000;-47
2022/04/17 10:16:46;;;;;;;1.07;0.98;;;;;;;7.24;78.22;100840.42;1775612;80;20936;-47
2022/04/17 10:19:16;;;;;;;0.78;0.78;;;;;;;7.25;77.93;100849.87;1775617;80;20905;-48
2022/04/17 10:21:46;;;;;;;0.88;0.80;;;;;;;7.31;78.34;100855.02;1775698;80;20952;-48
2022/04/17 10:24:16;;;;;;;0.80;0.80;;;;;;;7.37;76.98;100850.31;1775555;80;21218;-48
2022/04/17 10:26:51;;;;;;;0.60;0.60;;;;;;;7.37;76.15;100856.31;1775544;80;20869;-48
2022/04/17 10:29:40;;;;;;;1.12;0.60;;;;;;;7.32;76.60;100856.73;1775587;80;28707;-48
2022/04/17 10:32:36;;;;;;;0.78;0.78;;;;;;;7.21;77.00;100857.16;1775787;80;20885;-48
2022/04/17 10:35:40;;;;;;;0.67;0.67;;;;;;;7.22;77.61;100855.02;1775946;80;20991;-48
2022/04/17 10:38:29;;;;;;;0.72;0.72;;;;;;;7.19;76.86;100854.13;1774867;80;21035;-48
2022/04/17 10:41:04;;;;;;;2.72;0.70;;;;;;;7.16;76.89;100847.69;1775433;80;21565;-48
2022/04/17 10:43:50;;;;;;;0.80;0.80;;;;;;;7.18;76.96;100856.27;1775576;80;20885;-48
2022/04/17 10:46:18;;;;;;;0.60;0.60;;;;;;;7.26;77.67;100852.43;1775694;80;21371;-48
2022/04/17 10:48:52;;;;;;;0.68;0.68;;;;;;;7.37;77.87;100848.58;1775677;80;20873;-48
2022/04/17 10:51:27;;;;;;;0.50;0.50;;;;;;;7.41;77.69;100850.75;1775651;80;21833;-48
2022/04/17 10:54:10;;;;;;;0.60;0.60;;;;;;;7.43;76.07;100867.06;1775472;80;20896;-48
2022/04/17 10:56:58;;;;;;;0.70;0.70;;;;;;;7.41;75.41;100859.77;1775532;80;21534;-48
2022/04/17 10:59:33;;;;;;;0.70;0.70;;;;;;;7.42;75.45;100851.17;1775597;80;20870;-48
2022/04/17 11:02:11;;;;;;;0.57;0.57;;;;;;;7.46;74.50;100849.90;1775489;80;20968;-46
2022/04/17 11:04:55;;;;;;;0.68;0.68;;;;;;;7.48;74.77;100849.88;1773516;80;21159;-46
2022/04/17 11:07:26;;;;;;;0.60;0.60;;;;;;;7.50;75.09;100847.33;1775447;80;21466;-47
2022/04/17 11:10:20;;;;;;;1.37;0.80;;;;;;;7.47;74.98;100852.91;1775583;80;20881;-46
2022/04/17 11:12:55;;;;;;;1.30;0.80;;;;;;;7.51;74.27;100847.30;1775563;80;21526;-47
2022/04/17 11:15:26;;;;;;;0.95;0.90;;;;;;;7.42;75.14;100858.91;1775741;80;21474;-46
2022/04/17 11:17:57;;;;;;;1.17;1.12;;;;;;;7.33;75.42;100853.30;1775605;80;21003;-47
2022/04/17 11:20:24;;;;;;;0.88;0.88;;;;;;;7.24;76.97;100843.84;1775580;80;20944;-49
2022/04/17 11:22:50;;;;;;;1.45;0.90;;;;;;;7.18;77.65;100849.84;1775672;80;21439;-47
2022/04/17 11:25:19;;;;;;;3.75;3.55;;;;;;;7.16;78.77;100845.56;1769844;80;21490;-47
2022/04/17 11:27:51;;;;;;;2.92;1.32;;;;;;;7.08;76.48;100849.84;1768364;80;20960;-47
2022/04/17 11:30:23;;;;;;;1.07;1.07;;;;;;;6.98;77.16;100851.53;1768225;81;21246;-47
2022/04/17 11:32:51;;;;;;;1.70;1.60;;;;;;;6.94;77.25;100852.34;1768007;80;20984;-47
2022/04/17 11:35:25;;;;;;;2.22;2.05;;;;;;;6.89;76.82;100849.34;1768356;80;20944;-47
2022/04/17 11:38:06;;;;;;;0.60;0.60;;;;;;;6.87;77.89;100852.34;1768270;80;20889;-47
2022/04/17 11:40:38;;;;;;;0.88;0.88;;;;;;;6.84;77.05;100852.33;1768084;81;20920;-47
2022/04/17 11:43:08;;;;;;;2.12;2.02;;;;;;;6.81;76.22;100846.30;1768059;80;21123;-47
2022/04/17 11:45:34;;;;;;;1.00;1.00;;;;;;;6.81;75.58;100851.03;1768052;80;20841;-48
2022/04/17 11:48:07;;;;;;;0.90;0.90;;;;;;;6.79;77.02;100846.31;1768042;80;21482;-47
2022/04/17 11:50:34;;;;;;;1.30;0.78;;;;;;;6.85;76.81;100841.18;1768128;81;21460;-46
2022/04/17 11:53:10;;;;;;;0.75;0.75;;;;;;;6.86;75.12;100843.34;1768305;81;21028;-47